Merweborg — PDBM — position and weather

sailwx.info

Track history (hours):
 
Tides and Currents Weather Stations Pressure Air Temp Water Temp Dewpoint Dewpoint Depression Visibility Wind Speed Wind Dir Waves Ship Positions

Merweborg

Last reported at 2017-Sep-21 06:56 UTC. Time now 2017-Sep-21 07:12 UTC.
Position N 51°28' E 003°41'.

Length 135 m; draft 7.2 m.

Type: Ship. MMSI: 244860325.

Date/timePositionNaut miles runAvg speedWind from/ knotsBaromVisibWave heightAir tempDewpointWater temp
2017-Sep-21 06:56N 51°28' E 003°41'0 0.0
2017-Sep-21 06:14N 51°28' E 003°41'0 0.0
2017-Sep-21 05:59N 51°28' E 003°41'0 0.0
2017-Sep-21 05:29N 51°28' E 003°41'0 0.0
2017-Sep-21 04:53N 51°28' E 003°41'0 0.0
2017-Sep-21 04:14N 51°28' E 003°41'0 0.0
2017-Sep-21 03:59N 51°28' E 003°41'0 0.0
2017-Sep-21 03:29N 51°28' E 003°41'0 0.0
2017-Sep-21 02:59N 51°28' E 003°41'0 0.0
2017-Sep-21 02:29N 51°28' E 003°41'0 0.0
2017-Sep-21 01:59N 51°28' E 003°41'0 0.0
2017-Sep-21 01:26N 51°28' E 003°41'0 0.0
2017-Sep-21 00:59N 51°28' E 003°41'0 0.0
2017-Sep-21 00:29N 51°28' E 003°41'0 0.0
2017-Sep-20 23:56N 51°28' E 003°41'0 0.0
2017-Sep-20 23:29N 51°28' E 003°41'0 0.0
2017-Sep-20 22:59N 51°28' E 003°41'0 0.0
2017-Sep-20 22:29N 51°28' E 003°41'0 0.0
2017-Sep-20 21:59N 51°28' E 003°41'0 0.0
2017-Sep-20 21:23N 51°28' E 003°41'0 0.0
2017-Sep-20 20:59N 51°28' E 003°41'0 0.0
2017-Sep-20 20:29N 51°28' E 003°41'0 0.0
2017-Sep-20 19:59N 51°28' E 003°41'0 0.0
2017-Sep-20 19:26N 51°28' E 003°41'0 0.0
2017-Sep-20 18:59N 51°28' E 003°41'0 0.0
2017-Sep-20 18:26N 51°28' E 003°41'0 0.0
2017-Sep-20 17:59N 51°28' E 003°41'0 0.0
2017-Sep-20 17:23N 51°28' E 003°41'0 0.0
2017-Sep-20 16:59N 51°28' E 003°41'0 0.0
2017-Sep-20 16:26N 51°28' E 003°41'0 0.0
2017-Sep-20 15:53N 51°28' E 003°41'0 0.0
2017-Sep-20 15:14N 51°28' E 003°41'0 0.0
2017-Sep-20 14:59N 51°28' E 003°41'0 0.0
2017-Sep-20 13:59N 51°28' E 003°41'0 0.0
2017-Sep-20 13:26N 51°28' E 003°41'0 0.0
2017-Sep-20 12:59N 51°28' E 003°41'0 0.0
2017-Sep-20 12:29N 51°28' E 003°41'0 0.0
2017-Sep-20 11:59N 51°28' E 003°41'0 0.0
2017-Sep-20 11:29N 51°28' E 003°41'0 0.0
2017-Sep-20 10:53N 51°28' E 003°41'0 0.0
2017-Sep-20 10:29N 51°28' E 003°41'0 0.0
2017-Sep-20 09:51N 51°28' E 003°41'0 0.0
2017-Sep-20 09:29N 51°28' E 003°41'0 0.0
2017-Sep-20 08:09N 51°28' E 003°41'0 0.0
2017-Sep-20 07:59N 51°28' E 003°41'0 0.0
2017-Sep-20 07:23N 51°28' E 003°41'0 0.0
2017-Sep-20 06:59N 51°28' E 003°41'0 0.0
2017-Sep-20 06:29N 51°28' E 003°41'0 0.0
2017-Sep-20 05:59N 51°28' E 003°41'0 0.0
2017-Sep-20 05:29N 51°28' E 003°41'0 0.0
2017-Sep-20 04:59N 51°28' E 003°41'0 0.0
2017-Sep-20 04:23N 51°28' E 003°41'0 0.0
2017-Sep-20 03:59N 51°28' E 003°41'0 0.0
2017-Sep-20 03:29N 51°28' E 003°41'0 0.0
2017-Sep-20 02:59N 51°28' E 003°41'0 0.0
2017-Sep-20 02:29N 51°28' E 003°41'0 0.0
2017-Sep-20 01:59N 51°28' E 003°41'0 0.0
2017-Sep-20 01:29N 51°28' E 003°41'0 0.0
2017-Sep-20 00:59N 51°28' E 003°41'0 0.0
2017-Sep-20 00:29N 51°28' E 003°41'0 0.0
2017-Sep-19 23:57N 51°28' E 003°41'0 0.0
2017-Sep-19 23:23N 51°28' E 003°41'0 0.0
2017-Sep-19 22:54N 51°28' E 003°41'0 0.0
2017-Sep-19 22:27N 51°28' E 003°41'0 0.0
2017-Sep-19 21:42N 51°28' E 003°41'0 0.0
2017-Sep-19 21:30N 51°28' E 003°41'0 0.0
2017-Sep-19 20:57N 51°28' E 003°41'0 0.0
2017-Sep-19 20:30N 51°28' E 003°41'0 0.0
2017-Sep-19 20:01N 51°28' E 003°41'1 2.1
2017-Sep-19 19:30N 51°27' E 003°40'4 7.9
2017-Sep-19 19:00N 51°26' E 003°34'5 9.9
2017-Sep-19 18:31N 51°30' E 003°28'510.6
2017-Sep-19 18:00N 51°34' E 003°24'5 9.5
2017-Sep-19 17:30N 51°38' E 003°20'5 9.5
2017-Sep-19 17:00N 51°42' E 003°16'3 6.2
2017-Sep-19 16:30N 51°45' E 003°17'2 4.7
2017-Sep-19 16:00N 51°47' E 003°19'1 1.4
2017-Sep-19 15:28N 51°48' E 003°20'0 0.1
2017-Sep-19 14:58N 51°48' E 003°20'0 0.0
2017-Sep-19 14:28N 51°48' E 003°20'0 0.0
2017-Sep-19 13:58N 51°48' E 003°20'0 0.0
2017-Sep-19 13:28N 51°48' E 003°20'0 0.0
2017-Sep-19 12:58N 51°48' E 003°20'0 0.0
2017-Sep-19 12:28N 51°48' E 003°20'0 0.1
2017-Sep-19 11:58N 51°48' E 003°20'0 0.1
2017-Sep-19 11:25N 51°48' E 003°20'0 0.1
2017-Sep-19 10:16N 51°48' E 003°19'0 0.0
2017-Sep-19 09:31N 51°48' E 003°19'0 0.1
2017-Sep-19 09:28N 51°48' E 003°19'0 0.0
2017-Sep-19 08:52N 51°48' E 003°19'0 0.0
2017-Sep-19 06:46N 51°48' E 003°19'0 0.0
2017-Sep-19 05:13N 51°48' E 003°19'0 0.1
2017-Sep-19 04:58N 51°48' E 003°20'0 0.1
2017-Sep-19 04:28N 51°48' E 003°20'0 0.2
2017-Sep-19 03:58N 51°48' E 003°20'0 0.1
2017-Sep-19 03:28N 51°48' E 003°20'0 0.0
2017-Sep-19 02:58N 51°48' E 003°20'0 0.1
2017-Sep-19 02:28N 51°48' E 003°20'0 0.0
2017-Sep-19 01:58N 51°48' E 003°20'0 0.1
2017-Sep-19 01:28N 51°48' E 003°20'0 0.0
2017-Sep-19 00:52N 51°48' E 003°20'0 0.0
2017-Sep-19 00:28N 51°48' E 003°20'0 0.1
2017-Sep-18 23:58N 51°48' E 003°20'0 0.1
2017-Sep-18 23:25N 51°48' E 003°20'0 0.1
2017-Sep-18 21:28N 51°48' E 003°20'0 0.1
2017-Sep-18 20:58N 51°48' E 003°19'0 0.0
2017-Sep-18 20:04N 51°48' E 003°19'0 0.0
2017-Sep-18 19:55N 51°48' E 003°19'0 0.0
2017-Sep-18 19:07N 51°48' E 003°19'0 0.1
2017-Sep-18 18:58N 51°48' E 003°19'0 0.0
2017-Sep-18 17:46N 51°48' E 003°20'0 0.1
2017-Sep-18 17:04N 51°48' E 003°20'0 0.2
2017-Sep-18 16:58N 51°48' E 003°20'0 0.1
2017-Sep-18 16:19N 51°48' E 003°20'0 0.3
2017-Sep-18 15:58N 51°48' E 003°20'0 0.1
2017-Sep-18 15:01N 51°48' E 003°20'0 0.0
2017-Sep-18 14:55N 51°48' E 003°20'0 0.0
2017-Sep-18 12:52N 51°48' E 003°20'0 0.0
2017-Sep-18 12:25N 51°48' E 003°20'0 0.0
2017-Sep-18 11:52N 51°48' E 003°20'36510.6
2017-Sep-17 01:32N 57°09' E 008°21'111.4
2017-Sep-17 01:28N 57°09' E 008°22'611.5
2017-Sep-17 00:59N 57°12' E 008°30'611.5
2017-Sep-17 00:30N 57°15' E 008°39'611.8
2017-Sep-16 23:59N 57°19' E 008°48'5611.7
2017-Sep-16 19:11N 57°46' E 010°19'411.1
2017-Sep-16 18:50N 57°47' E 010°26'411.1
2017-Sep-16 18:30N 57°48' E 010°33'611.1
2017-Sep-16 18:00N 57°48' E 010°43'611.9
2017-Sep-16 17:30N 57°45' E 010°52'612.2
2017-Sep-16 16:59N 57°41' E 011°01'612.6
2017-Sep-16 16:30N 57°37' E 011°09'612.7
2017-Sep-16 16:00N 57°32' E 011°18'612.3
2017-Sep-16 15:29N 57°28' E 011°26'612.4
2017-Sep-16 15:00N 57°22' E 011°30'612.4
2017-Sep-16 14:30N 57°16' E 011°34'612.3
2017-Sep-16 13:59N 57°10' E 011°38'6012.1
2017-Sep-16 09:04N 56°16' E 012°20'312.3
2017-Sep-16 08:49N 56°13' E 012°24'412.3
2017-Sep-16 08:30N 56°10' E 012°28'612.3
2017-Sep-16 08:00N 56°06' E 012°35'611.8
2017-Sep-16 07:30N 56°01' E 012°41'611.8
2017-Sep-16 07:00N 55°55' E 012°45'611.9
2017-Sep-16 06:30N 55°49' E 012°43'611.9
2017-Sep-16 06:00N 55°43' E 012°41'611.9
2017-Sep-16 05:30N 55°38' E 012°42'510.1
2017-Sep-16 05:00N 55°32' E 012°42'611.3
2017-Sep-16 04:30N 55°27' E 012°42'612.4
2017-Sep-16 04:01N 55°21' E 012°40'510.4
2017-Sep-16 03:30N 55°17' E 012°47'510.9
2017-Sep-16 03:00N 55°16' E 012°56'510.8
2017-Sep-16 02:30N 55°15' E 013°06'510.8
2017-Sep-16 02:00N 55°15' E 013°15'1311.3
2017-Sep-16 00:49N 55°14' E 013°39'611.4
2017-Sep-16 00:17N 55°14' E 013°49'311.5
2017-Sep-15 23:59N 55°13' E 013°55'511.0
2017-Sep-15 23:29N 55°13' E 014°05'610.8
2017-Sep-15 22:58N 55°13' E 014°15'611.4
2017-Sep-15 22:27N 55°18' E 014°21'611.5
2017-Sep-15 21:56N 55°22' E 014°28'511.7
2017-Sep-15 21:30N 55°26' E 014°34'611.2
2017-Sep-15 21:00N 55°29' E 014°42'811.2
2017-Sep-15 20:19N 55°33' E 014°54'511.2
2017-Sep-15 19:53N 55°36' E 015°01'411.1
2017-Sep-15 19:30N 55°38' E 015°08'611.4
2017-Sep-15 19:00N 55°41' E 015°16'611.4
2017-Sep-15 18:30N 55°43' E 015°25'611.1
2017-Sep-15 18:00N 55°46' E 015°34'611.2
2017-Sep-15 17:30N 55°49' E 015°42'611.0
2017-Sep-15 17:00N 55°52' E 015°51'611.2
2017-Sep-15 16:30N 55°54' E 015°60'511.0
2017-Sep-15 16:00N 55°57' E 016°08'611.1
2017-Sep-15 15:30N 55°60' E 016°17'611.1
2017-Sep-15 15:00N 56°03' E 016°26'611.0
2017-Sep-15 14:30N 56°05' E 016°34'511.1
2017-Sep-15 14:00N 56°08' E 016°42'611.4
2017-Sep-15 13:30N 56°14' E 016°46'611.6
2017-Sep-15 13:00N 56°19' E 016°50'  
Track history (hours):
 
Tides and Currents Weather Stations Pressure Air Temp Water Temp Dewpoint Dewpoint Depression Visibility Wind Speed Wind Dir Waves Ship Positions

Merweborg

Last reported at 2017-Sep-21 06:56 UTC. Time now 2017-Sep-21 07:12 UTC.
Position N 51°28' E 003°41'.

Length 135 m; draft 7.2 m.

Type: Ship. MMSI: 244860325.

Date/timePositionNaut miles runAvg speedWind from/ knotsBaromVisibWave heightAir tempDewpointWater temp
2017-Sep-21 06:56N 51°28' E 003°41'0 0.0
2017-Sep-21 06:14N 51°28' E 003°41'0 0.0
2017-Sep-21 05:59N 51°28' E 003°41'0 0.0
2017-Sep-21 05:29N 51°28' E 003°41'0 0.0
2017-Sep-21 04:53N 51°28' E 003°41'0 0.0
2017-Sep-21 04:14N 51°28' E 003°41'0 0.0
2017-Sep-21 03:59N 51°28' E 003°41'0 0.0
2017-Sep-21 03:29N 51°28' E 003°41'0 0.0
2017-Sep-21 02:59N 51°28' E 003°41'0 0.0
2017-Sep-21 02:29N 51°28' E 003°41'0 0.0
2017-Sep-21 01:59N 51°28' E 003°41'0 0.0
2017-Sep-21 01:26N 51°28' E 003°41'0 0.0
2017-Sep-21 00:59N 51°28' E 003°41'0 0.0
2017-Sep-21 00:29N 51°28' E 003°41'0 0.0
2017-Sep-20 23:56N 51°28' E 003°41'0 0.0
2017-Sep-20 23:29N 51°28' E 003°41'0 0.0
2017-Sep-20 22:59N 51°28' E 003°41'0 0.0
2017-Sep-20 22:29N 51°28' E 003°41'0 0.0
2017-Sep-20 21:59N 51°28' E 003°41'0 0.0
2017-Sep-20 21:23N 51°28' E 003°41'0 0.0
2017-Sep-20 20:59N 51°28' E 003°41'0 0.0
2017-Sep-20 20:29N 51°28' E 003°41'0 0.0
2017-Sep-20 19:59N 51°28' E 003°41'0 0.0
2017-Sep-20 19:26N 51°28' E 003°41'0 0.0
2017-Sep-20 18:59N 51°28' E 003°41'0 0.0
2017-Sep-20 18:26N 51°28' E 003°41'0 0.0
2017-Sep-20 17:59N 51°28' E 003°41'0 0.0
2017-Sep-20 17:23N 51°28' E 003°41'0 0.0
2017-Sep-20 16:59N 51°28' E 003°41'0 0.0
2017-Sep-20 16:26N 51°28' E 003°41'0 0.0
2017-Sep-20 15:53N 51°28' E 003°41'0 0.0
2017-Sep-20 15:14N 51°28' E 003°41'0 0.0
2017-Sep-20 14:59N 51°28' E 003°41'0 0.0
2017-Sep-20 13:59N 51°28' E 003°41'0 0.0
2017-Sep-20 13:26N 51°28' E 003°41'0 0.0
2017-Sep-20 12:59N 51°28' E 003°41'0 0.0
2017-Sep-20 12:29N 51°28' E 003°41'0 0.0
2017-Sep-20 11:59N 51°28' E 003°41'0 0.0
2017-Sep-20 11:29N 51°28' E 003°41'0 0.0
2017-Sep-20 10:53N 51°28' E 003°41'0 0.0
2017-Sep-20 10:29N 51°28' E 003°41'0 0.0
2017-Sep-20 09:51N 51°28' E 003°41'0 0.0
2017-Sep-20 09:29N 51°28' E 003°41'0 0.0
2017-Sep-20 08:09N 51°28' E 003°41'0 0.0
2017-Sep-20 07:59N 51°28' E 003°41'0 0.0
2017-Sep-20 07:23N 51°28' E 003°41'0 0.0
2017-Sep-20 06:59N 51°28' E 003°41'0 0.0
2017-Sep-20 06:29N 51°28' E 003°41'0 0.0
2017-Sep-20 05:59N 51°28' E 003°41'0 0.0
2017-Sep-20 05:29N 51°28' E 003°41'0 0.0
2017-Sep-20 04:59N 51°28' E 003°41'0 0.0
2017-Sep-20 04:23N 51°28' E 003°41'0 0.0
2017-Sep-20 03:59N 51°28' E 003°41'0 0.0
2017-Sep-20 03:29N 51°28' E 003°41'0 0.0
2017-Sep-20 02:59N 51°28' E 003°41'0 0.0
2017-Sep-20 02:29N 51°28' E 003°41'0 0.0
2017-Sep-20 01:59N 51°28' E 003°41'0 0.0
2017-Sep-20 01:29N 51°28' E 003°41'0 0.0
2017-Sep-20 00:59N 51°28' E 003°41'0 0.0
2017-Sep-20 00:29N 51°28' E 003°41'0 0.0
2017-Sep-19 23:57N 51°28' E 003°41'0 0.0
2017-Sep-19 23:23N 51°28' E 003°41'0 0.0
2017-Sep-19 22:54N 51°28' E 003°41'0 0.0
2017-Sep-19 22:27N 51°28' E 003°41'0 0.0
2017-Sep-19 21:42N 51°28' E 003°41'0 0.0
2017-Sep-19 21:30N 51°28' E 003°41'0 0.0
2017-Sep-19 20:57N 51°28' E 003°41'0 0.0
2017-Sep-19 20:30N 51°28' E 003°41'0 0.0
2017-Sep-19 20:01N 51°28' E 003°41'1 2.1
2017-Sep-19 19:30N 51°27' E 003°40'4 7.9
2017-Sep-19 19:00N 51°26' E 003°34'5 9.9
2017-Sep-19 18:31N 51°30' E 003°28'510.6
2017-Sep-19 18:00N 51°34' E 003°24'5 9.5
2017-Sep-19 17:30N 51°38' E 003°20'5 9.5
2017-Sep-19 17:00N 51°42' E 003°16'3 6.2
2017-Sep-19 16:30N 51°45' E 003°17'2 4.7
2017-Sep-19 16:00N 51°47' E 003°19'1 1.4
2017-Sep-19 15:28N 51°48' E 003°20'0 0.1
2017-Sep-19 14:58N 51°48' E 003°20'0 0.0
2017-Sep-19 14:28N 51°48' E 003°20'0 0.0
2017-Sep-19 13:58N 51°48' E 003°20'0 0.0
2017-Sep-19 13:28N 51°48' E 003°20'0 0.0
2017-Sep-19 12:58N 51°48' E 003°20'0 0.0
2017-Sep-19 12:28N 51°48' E 003°20'0 0.1
2017-Sep-19 11:58N 51°48' E 003°20'0 0.1
2017-Sep-19 11:25N 51°48' E 003°20'0 0.1
2017-Sep-19 10:16N 51°48' E 003°19'0 0.0
2017-Sep-19 09:31N 51°48' E 003°19'0 0.1
2017-Sep-19 09:28N 51°48' E 003°19'0 0.0
2017-Sep-19 08:52N 51°48' E 003°19'0 0.0
2017-Sep-19 06:46N 51°48' E 003°19'0 0.0
2017-Sep-19 05:13N 51°48' E 003°19'0 0.1
2017-Sep-19 04:58N 51°48' E 003°20'0 0.1
2017-Sep-19 04:28N 51°48' E 003°20'0 0.2
2017-Sep-19 03:58N 51°48' E 003°20'0 0.1
2017-Sep-19 03:28N 51°48' E 003°20'0 0.0
2017-Sep-19 02:58N 51°48' E 003°20'0 0.1
2017-Sep-19 02:28N 51°48' E 003°20'0 0.0
2017-Sep-19 01:58N 51°48' E 003°20'0 0.1
2017-Sep-19 01:28N 51°48' E 003°20'0 0.0
2017-Sep-19 00:52N 51°48' E 003°20'0 0.0
2017-Sep-19 00:28N 51°48' E 003°20'0 0.1
2017-Sep-18 23:58N 51°48' E 003°20'0 0.1
2017-Sep-18 23:25N 51°48' E 003°20'0 0.1
2017-Sep-18 21:28N 51°48' E 003°20'0 0.1
2017-Sep-18 20:58N 51°48' E 003°19'0 0.0
2017-Sep-18 20:04N 51°48' E 003°19'0 0.0
2017-Sep-18 19:55N 51°48' E 003°19'0 0.0
2017-Sep-18 19:07N 51°48' E 003°19'0 0.1
2017-Sep-18 18:58N 51°48' E 003°19'0 0.0
2017-Sep-18 17:46N 51°48' E 003°20'0 0.1
2017-Sep-18 17:04N 51°48' E 003°20'0 0.2
2017-Sep-18 16:58N 51°48' E 003°20'0 0.1
2017-Sep-18 16:19N 51°48' E 003°20'0 0.3
2017-Sep-18 15:58N 51°48' E 003°20'0 0.1
2017-Sep-18 15:01N 51°48' E 003°20'0 0.0
2017-Sep-18 14:55N 51°48' E 003°20'0 0.0
2017-Sep-18 12:52N 51°48' E 003°20'0 0.0
2017-Sep-18 12:25N 51°48' E 003°20'0 0.0
2017-Sep-18 11:52N 51°48' E 003°20'36510.6
2017-Sep-17 01:32N 57°09' E 008°21'111.4
2017-Sep-17 01:28N 57°09' E 008°22'611.5
2017-Sep-17 00:59N 57°12' E 008°30'611.5
2017-Sep-17 00:30N 57°15' E 008°39'611.8
2017-Sep-16 23:59N 57°19' E 008°48'5611.7
2017-Sep-16 19:11N 57°46' E 010°19'411.1
2017-Sep-16 18:50N 57°47' E 010°26'411.1
2017-Sep-16 18:30N 57°48' E 010°33'611.1
2017-Sep-16 18:00N 57°48' E 010°43'611.9
2017-Sep-16 17:30N 57°45' E 010°52'612.2
2017-Sep-16 16:59N 57°41' E 011°01'612.6
2017-Sep-16 16:30N 57°37' E 011°09'612.7
2017-Sep-16 16:00N 57°32' E 011°18'612.3
2017-Sep-16 15:29N 57°28' E 011°26'612.4
2017-Sep-16 15:00N 57°22' E 011°30'612.4
2017-Sep-16 14:30N 57°16' E 011°34'612.3
2017-Sep-16 13:59N 57°10' E 011°38'6012.1
2017-Sep-16 09:04N 56°16' E 012°20'312.3
2017-Sep-16 08:49N 56°13' E 012°24'412.3
2017-Sep-16 08:30N 56°10' E 012°28'612.3
2017-Sep-16 08:00N 56°06' E 012°35'611.8
2017-Sep-16 07:30N 56°01' E 012°41'611.8
2017-Sep-16 07:00N 55°55' E 012°45'611.9
2017-Sep-16 06:30N 55°49' E 012°43'611.9
2017-Sep-16 06:00N 55°43' E 012°41'611.9
2017-Sep-16 05:30N 55°38' E 012°42'510.1
2017-Sep-16 05:00N 55°32' E 012°42'611.3
2017-Sep-16 04:30N 55°27' E 012°42'612.4
2017-Sep-16 04:01N 55°21' E 012°40'510.4
2017-Sep-16 03:30N 55°17' E 012°47'510.9
2017-Sep-16 03:00N 55°16' E 012°56'510.8
2017-Sep-16 02:30N 55°15' E 013°06'510.8
2017-Sep-16 02:00N 55°15' E 013°15'1311.3
2017-Sep-16 00:49N 55°14' E 013°39'611.4
2017-Sep-16 00:17N 55°14' E 013°49'311.5
2017-Sep-15 23:59N 55°13' E 013°55'511.0
2017-Sep-15 23:29N 55°13' E 014°05'610.8
2017-Sep-15 22:58N 55°13' E 014°15'611.4
2017-Sep-15 22:27N 55°18' E 014°21'611.5
2017-Sep-15 21:56N 55°22' E 014°28'511.7
2017-Sep-15 21:30N 55°26' E 014°34'611.2
2017-Sep-15 21:00N 55°29' E 014°42'811.2
2017-Sep-15 20:19N 55°33' E 014°54'511.2
2017-Sep-15 19:53N 55°36' E 015°01'411.1
2017-Sep-15 19:30N 55°38' E 015°08'611.4
2017-Sep-15 19:00N 55°41' E 015°16'611.4
2017-Sep-15 18:30N 55°43' E 015°25'611.1
2017-Sep-15 18:00N 55°46' E 015°34'611.2
2017-Sep-15 17:30N 55°49' E 015°42'611.0
2017-Sep-15 17:00N 55°52' E 015°51'611.2
2017-Sep-15 16:30N 55°54' E 015°60'511.0
2017-Sep-15 16:00N 55°57' E 016°08'611.1
2017-Sep-15 15:30N 55°60' E 016°17'611.1
2017-Sep-15 15:00N 56°03' E 016°26'611.0
2017-Sep-15 14:30N 56°05' E 016°34'511.1
2017-Sep-15 14:00N 56°08' E 016°42'611.4
2017-Sep-15 13:30N 56°14' E 016°46'611.6
2017-Sep-15 13:00N 56°19' E 016°50'  

Dump ship's entire track history